Time;durP1;ratioP1;P1;durP2;ratioP2;P2;SDS_P1;SDS_P2;PMS_P1;PMS_P2;Temp;Humidity;BMP_temperature;BMP_pressure;BME280_temperature;BME280_humidity;BME280_pressure;Samples;Min_cycle;Max_cycle;Signal;HPM_P1;HPM_P2
2022/05/02 04:02:22;;;;;;;32.22;23.23;;;7.40;99.90;;;;;;5104188;23;20050;-77
2022/05/02 04:04:48;;;;;;;41.55;26.00;;;7.30;99.90;;;;;;4995304;28;20038;-77
2022/05/02 04:07:13;;;;;;;36.97;24.92;;;7.30;99.90;;;;;;4995670;28;20409;-77
2022/05/02 04:09:39;;;;;;;35.95;25.80;;;7.30;99.90;;;;;;4995813;28;20485;-76
2022/05/02 04:12:05;;;;;;;36.55;26.20;;;7.30;99.90;;;;;;4995883;28;20030;-76
2022/05/02 04:14:30;;;;;;;38.17;25.60;;;7.40;99.90;;;;;;4996084;28;20106;-77
2022/05/02 04:16:56;;;;;;;36.20;25.90;;;7.40;99.90;;;;;;4995936;28;20042;-77
2022/05/02 04:19:21;;;;;;;36.15;25.95;;;7.50;99.90;;;;;;4993765;28;21334;-78
2022/05/02 04:21:47;;;;;;;37.13;25.08;;;7.60;99.90;;;;;;4996040;28;20038;-76
2022/05/02 04:24:14;;;;;;;36.17;25.50;;;7.60;99.90;;;;;;4996227;28;20045;-76
2022/05/02 04:26:39;;;;;;;38.10;25.58;;;7.60;99.90;;;;;;4996131;28;20030;-76
2022/05/02 04:29:05;;;;;;;37.67;26.23;;;7.60;99.90;;;;;;4996428;28;20045;-77
2022/05/02 04:31:30;;;;;;;35.50;23.95;;;7.60;99.90;;;;;;4996054;28;20026;-77
2022/05/02 04:33:56;;;;;;;35.05;24.73;;;7.60;99.90;;;;;;4995373;28;20114;-76
2022/05/02 04:36:22;;;;;;;43.83;29.00;;;7.60;99.90;;;;;;4995421;28;20122;-77
2022/05/02 04:38:47;;;;;;;39.03;26.80;;;7.60;99.90;;;;;;4995642;28;20839;-76
2022/05/02 04:41:14;;;;;;;35.17;24.98;;;7.60;99.90;;;;;;4994857;28;20058;-76
2022/05/02 04:43:41;;;;;;;37.90;24.88;;;7.70;99.90;;;;;;4995094;28;20408;-76
2022/05/02 04:46:07;;;;;;;39.83;27.38;;;7.70;99.90;;;;;;4995130;28;20058;-76
2022/05/02 04:48:33;;;;;;;37.13;25.42;;;7.70;99.90;;;;;;4995184;28;20030;-77
2022/05/02 04:50:59;;;;;;;37.53;26.50;;;7.70;99.90;;;;;;4995062;28;20038;-76
2022/05/02 04:53:24;;;;;;;35.60;24.73;;;7.80;99.90;;;;;;4995015;28;20046;-76
2022/05/02 04:55:50;;;;;;;35.05;25.45;;;7.90;99.90;;;;;;4995432;28;20126;-79
2022/05/02 04:58:15;;;;;;;36.42;25.83;;;8.00;99.90;;;;;;4995747;28;20039;-78
2022/05/02 05:00:42;;;;;;;37.30;24.50;;;8.20;99.90;;;;;;4993577;28;20054;-77
2022/05/02 05:03:10;;;;;;;32.05;23.80;;;8.40;99.90;;;;;;4995734;28;20080;-78
2022/05/02 05:05:39;;;;;;;31.00;23.83;;;8.60;99.90;;;;;;4995693;28;20034;-79
2022/05/02 05:08:05;;;;;;;36.00;25.77;;;8.70;99.90;;;;;;4996295;28;20500;-78
2022/05/02 05:10:35;;;;;;;31.85;24.08;;;9.00;99.90;;;;;;4996634;28;20042;-78
2022/05/02 05:13:07;;;;;;;30.67;22.60;;;9.10;99.90;;;;;;4994654;28;20039;-79
2022/05/02 05:18:37;;;;;;;35.08;23.05;;;9.10;99.90;;;;;;4992230;28;20046;-78
2022/05/02 05:21:06;;;;;;;28.75;21.23;;;9.10;99.90;;;;;;4994987;28;20038;-79
2022/05/02 05:23:53;;;;;;;31.15;22.98;;;9.10;99.90;;;;;;4994722;28;20039;-80
2022/05/02 05:26:27;;;;;;;36.05;23.77;;;9.10;99.90;;;;;;4996206;28;20031;-77
2022/05/02 05:28:56;;;;;;;33.20;23.08;;;9.10;99.90;;;;;;4996392;28;20076;-77
2022/05/02 05:31:28;;;;;;;29.92;23.30;;;9.10;99.90;;;;;;4995558;28;20548;-77
2022/05/02 05:34:01;;;;;;;30.88;23.05;;;9.20;99.90;;;;;;4994994;28;20512;-77
2022/05/02 05:36:43;;;;;;;27.23;21.35;;;9.20;99.90;;;;;;4995797;28;20200;-78
2022/05/02 05:39:43;;;;;;;30.17;23.88;;;9.20;99.90;;;;;;4995411;28;20089;-78
2022/05/02 05:42:24;;;;;;;30.50;22.65;;;9.30;99.90;;;;;;4985855;28;20564;-77
2022/05/02 05:45:03;;;;;;;37.22;24.35;;;9.30;99.90;;;;;;4995128;28;20043;-77
2022/05/02 05:48:15;;;;;;;32.42;23.95;;;9.40;99.90;;;;;;4995494;28;20035;-77
2022/05/02 05:50:46;;;;;;;30.63;23.10;;;9.50;99.90;;;;;;4953391;28;20052;-80
2022/05/02 05:53:37;;;;;;;31.27;24.48;;;9.60;99.90;;;;;;4953788;28;20031;-78
2022/05/02 05:56:33;;;;;;;30.88;23.63;;;9.70;99.90;;;;;;4981071;28;20512;-77
2022/05/02 05:59:21;;;;;;;34.58;24.10;;;9.80;99.90;;;;;;4995208;28;20058;-78
2022/05/02 06:01:56;;;;;;;34.92;25.08;;;9.90;99.90;;;;;;4994298;28;20070;-77
2022/05/02 06:04:24;;;;;;;34.05;24.80;;;10.00;99.90;;;;;;4993063;28;20045;-77
2022/05/02 06:06:50;;;;;;;31.55;23.63;;;10.00;99.90;;;;;;4994839;28;20023;-77
2022/05/02 06:09:17;;;;;;;31.00;23.73;;;10.10;99.90;;;;;;4993130;28;20041;-78
2022/05/02 06:11:48;;;;;;;28.10;23.25;;;10.20;99.90;;;;;;4992487;28;20037;-78
2022/05/02 06:14:15;;;;;;;29.05;23.42;;;10.30;99.90;;;;;;4994290;28;20031;-77
2022/05/02 06:19:31;;;;;;;27.63;22.95;;;10.40;99.90;;;;;;4991810;28;20039;-78
2022/05/02 06:22:01;;;;;;;30.60;24.35;;;10.50;99.90;;;;;;4992903;28;20117;-78
2022/05/02 06:24:30;;;;;;;27.73;22.85;;;10.60;99.90;;;;;;4995387;28;20074;-77
2022/05/02 06:26:59;;;;;;;27.65;21.85;;;10.70;99.90;;;;;;4987429;28;20031;-78
2022/05/02 06:29:25;;;;;;;28.88;24.40;;;10.80;99.90;;;;;;4986407;28;20386;-76
2022/05/02 06:31:54;;;;;;;28.80;23.13;;;11.10;99.90;;;;;;4986194;28;20042;-78
2022/05/02 06:34:26;;;;;;;28.10;22.45;;;11.30;99.90;;;;;;4985594;28;20086;-77
2022/05/02 06:37:27;;;;;;;25.60;21.58;;;11.70;99.90;;;;;;4978957;28;20038;-80
2022/05/02 06:40:24;;;;;;;25.75;21.02;;;12.10;99.90;;;;;;4978598;28;20453;-77
2022/05/02 06:43:12;;;;;;;23.65;19.45;;;12.40;99.90;;;;;;4977814;28;20742;-78
2022/05/02 06:45:55;;;;;;;22.90;20.17;;;12.50;99.90;;;;;;4993714;28;20137;-77
2022/05/02 06:48:36;;;;;;;23.27;20.02;;;12.50;99.90;;;;;;4978278;28;20420;-78
2022/05/02 06:51:06;;;;;;;22.08;19.75;;;12.60;99.90;;;;;;4977894;28;20038;-76
2022/05/02 06:53:50;;;;;;;23.65;19.38;;;12.60;99.90;;;;;;4977466;28;20038;-78
2022/05/02 06:56:45;;;;;;;21.23;18.00;;;12.80;99.90;;;;;;4976235;28;20039;-77
2022/05/02 06:59:32;;;;;;;22.05;19.13;;;12.90;99.90;;;;;;4978972;28;20033;-78
2022/05/02 07:02:12;;;;;;;21.23;18.58;;;12.90;99.90;;;;;;4976522;28;20047;-77
2022/05/02 07:04:55;;;;;;;25.17;19.52;;;12.90;99.90;;;;;;4977248;28;20520;-78
2022/05/02 07:07:35;;;;;;;21.33;17.65;;;12.90;99.90;;;;;;4978598;28;20043;-75
2022/05/02 07:10:28;;;;;;;20.95;18.35;;;13.10;99.90;;;;;;4982385;28;20125;-76
2022/05/02 07:13:18;;;;;;;21.90;17.45;;;13.20;99.90;;;;;;4995781;28;20393;-76
2022/05/02 07:16:19;;;;;;;19.15;17.08;;;13.30;99.90;;;;;;4996826;28;20035;-76
2022/05/02 07:19:25;;;;;;;18.33;16.42;;;13.60;99.90;;;;;;4986028;28;20058;-76
2022/05/02 07:21:57;;;;;;;20.20;16.67;;;13.90;99.90;;;;;;4984879;28;20091;-76
2022/05/02 07:24:40;;;;;;;19.67;16.00;;;14.20;99.90;;;;;;4987799;28;20043;-76
2022/05/02 07:27:24;;;;;;;22.38;16.48;;;14.70;99.90;;;;;;4993665;28;20038;-77
2022/05/02 07:29:51;;;;;;;19.38;15.77;;;15.00;99.90;;;;;;4995424;28;20527;-77
2022/05/02 07:32:21;;;;;;;17.48;15.70;;;15.40;99.90;;;;;;4988535;28;20082;-77
2022/05/02 07:34:48;;;;;;;19.27;15.60;;;15.70;99.90;;;;;;4986549;28;20452;-78
2022/05/02 07:37:15;;;;;;;18.58;14.60;;;15.90;99.90;;;;;;4992202;28;20043;-79
2022/05/02 07:39:45;;;;;;;17.13;15.30;;;16.10;99.90;;;;;;4996125;28;20118;-77
2022/05/02 07:42:13;;;;;;;21.75;16.67;;;16.10;99.90;;;;;;4997183;28;20035;-77
2022/05/02 07:44:43;;;;;;;19.60;14.85;;;16.10;99.90;;;;;;4996027;28;20047;-78
2022/05/02 07:47:11;;;;;;;24.95;15.57;;;16.00;99.90;;;;;;4992723;28;20137;-77
2022/05/02 07:49:39;;;;;;;38.83;16.65;;;16.00;99.90;;;;;;4987429;28;20783;-78
2022/05/02 07:52:07;;;;;;;20.88;15.52;;;16.00;99.90;;;;;;4986928;28;20110;-78
2022/05/02 07:54:38;;;;;;;19.35;16.30;;;16.10;99.90;;;;;;4976571;28;20039;-78
2022/05/02 07:57:05;;;;;;;17.63;15.43;;;16.10;99.90;;;;;;4980465;28;20122;-80
2022/05/02 07:59:39;;;;;;;18.08;15.63;;;16.10;99.90;;;;;;4991294;28;20182;-79
2022/05/02 08:02:05;;;;;;;22.08;17.10;;;15.90;99.90;;;;;;4986534;28;20039;-79
2022/05/02 08:04:31;;;;;;;24.58;15.40;;;15.90;99.90;;;;;;4994465;28;20043;-79
2022/05/02 08:07:20;;;;;;;21.27;15.80;;;16.00;99.90;;;;;;4996399;28;20030;-80
2022/05/02 08:10:24;;;;;;;19.67;15.65;;;16.10;99.90;;;;;;4995993;28;20030;-78
2022/05/02 08:13:02;;;;;;;23.23;16.08;;;16.20;99.90;;;;;;4995701;28;20043;-79
2022/05/02 08:15:50;;;;;;;17.90;16.08;;;16.20;99.90;;;;;;4997724;28;20053;-78
2022/05/02 08:18:18;;;;;;;21.10;15.70;;;16.20;99.90;;;;;;4995981;28;20031;-79
2022/05/02 08:21:03;;;;;;;17.98;14.68;;;16.20;99.90;;;;;;4995805;28;20034;-78
2022/05/02 08:30:03;;;;;;;18.10;14.02;;;16.80;99.90;;;;;;4982147;28;20416;-79
2022/05/02 08:32:34;;;;;;;18.70;15.85;;;17.60;99.90;;;;;;5000142;28;20093;-79
2022/05/02 08:35:26;;;;;;;16.75;13.93;;;17.80;99.90;;;;;;5006907;28;20046;-78
2022/05/02 08:38:28;;;;;;;15.80;14.10;;;17.90;99.90;;;;;;5006174;28;20049;-79
2022/05/02 08:41:26;;;;;;;18.23;14.82;;;18.20;99.90;;;;;;4993516;28;20038;-79
2022/05/02 08:44:14;;;;;;;17.85;14.10;;;18.30;99.30;;;;;;4998193;28;20041;-79
2022/05/02 08:47:00;;;;;;;15.27;13.75;;;18.90;98.80;;;;;;4998367;28;20038;-81
2022/05/02 08:49:47;;;;;;;15.32;13.20;;;19.10;97.90;;;;;;4999433;28;20065;-82
2022/05/02 08:52:52;;;;;;;16.65;13.60;;;19.10;97.10;;;;;;4985857;28;20035;-81
2022/05/02 08:55:54;;;;;;;18.20;14.27;;;19.20;98.00;;;;;;4993443;28;20058;-81
2022/05/02 08:58:58;;;;;;;15.82;13.23;;;18.90;97.40;;;;;;5001002;28;20035;-81
2022/05/02 09:01:29;;;;;;;18.20;12.88;;;18.90;96.90;;;;;;4986277;28;20038;-78
2022/05/02 09:04:14;;;;;;;14.73;13.13;;;18.90;96.40;;;;;;4990573;28;20043;-80
2022/05/02 09:06:53;;;;;;;16.45;13.30;;;18.90;96.70;;;;;;4975622;28;20028;-78
2022/05/02 09:09:25;;;;;;;15.13;13.13;;;18.70;96.40;;;;;;4976233;28;20036;-77
2022/05/02 09:12:02;;;;;;;15.13;12.82;;;18.90;96.00;;;;;;4974023;28;20039;-76
2022/05/02 09:14:59;;;;;;;16.73;13.15;;;18.70;95.20;;;;;;4985466;28;20531;-76
2022/05/02 09:17:52;;;;;;;12.80;11.48;;;18.80;95.80;;;;;;4991096;28;20039;-76
2022/05/02 09:20:24;;;;;;;15.70;13.60;;;19.20;96.30;;;;;;4985032;28;20043;-75
2022/05/02 09:23:17;;;;;;;14.93;13.05;;;19.00;95.90;;;;;;4995093;28;20493;-78
2022/05/02 09:26:01;;;;;;;16.75;13.43;;;19.00;94.90;;;;;;4993493;28;20038;-77
2022/05/02 09:28:32;;;;;;;14.73;12.63;;;19.10;94.80;;;;;;4988512;28;20118;-77
2022/05/02 09:31:33;;;;;;;16.38;13.88;;;18.70;95.90;;;;;;4975146;28;20035;-77
2022/05/02 09:34:17;;;;;;;14.15;12.50;;;18.70;96.00;;;;;;4972310;28;20039;-77
2022/05/02 09:36:47;;;;;;;13.07;11.32;;;19.00;95.10;;;;;;4975778;28;20051;-78
2022/05/02 09:39:42;;;;;;;14.80;11.50;;;19.20;93.70;;;;;;4980360;28;20476;-77
2022/05/02 09:42:42;;;;;;;13.52;11.02;;;19.20;93.40;;;;;;4975645;28;20043;-82
2022/05/02 09:51:58;;;;;;;11.05;8.18;;;20.60;91.20;;;;;;4984150;28;20094;-78
2022/05/02 09:58:04;;;;;;;11.13;8.75;;;21.10;86.00;;;;;;4997780;28;20125;-78
2022/05/02 10:01:07;;;;;;;9.63;7.68;;;20.40;87.20;;;;;;4997722;28;20035;-79
2022/05/02 10:04:11;;;;;;;9.38;8.23;;;20.00;84.70;;;;;;4998193;28;20046;-78
2022/05/02 10:06:49;;;;;;;10.95;9.07;;;20.00;86.90;;;;;;4983405;28;20046;-78
2022/05/02 10:09:33;;;;;;;9.60;8.15;;;20.30;88.80;;;;;;4998223;28;20508;-78
2022/05/02 10:12:20;;;;;;;9.68;8.63;;;20.70;89.60;;;;;;4998224;28;20042;-77
2022/05/02 10:14:50;;;;;;;13.38;8.93;;;20.40;86.90;;;;;;4998398;28;20035;-78
2022/05/02 10:17:40;;;;;;;11.13;9.10;;;19.80;89.10;;;;;;4996595;28;20089;-78
2022/05/02 10:20:15;;;;;;;12.73;8.60;;;19.70;90.40;;;;;;4994566;28;20110;-79
2022/05/02 10:22:50;;;;;;;13.85;9.15;;;19.60;90.60;;;;;;4978831;28;20099;-78
2022/05/02 10:25:18;;;;;;;11.18;7.20;;;19.70;91.20;;;;;;4980496;28;20122;-80
2022/05/02 10:28:04;;;;;;;8.30;7.45;;;19.50;89.00;;;;;;4982065;28;20780;-78
2022/05/02 10:30:50;;;;;;;12.38;9.95;;;20.10;87.80;;;;;;4979583;28;20039;-80
2022/05/02 10:33:40;;;;;;;10.55;9.45;;;20.40;90.90;;;;;;4993198;28;20082;-78
2022/05/02 10:36:06;;;;;;;9.45;8.45;;;20.90;88.80;;;;;;4990360;28;20862;-80
2022/05/02 10:38:34;;;;;;;8.50;7.03;;;21.50;84.70;;;;;;4998453;28;20035;-83
2022/05/02 10:41:11;;;;;;;9.45;7.65;;;21.60;81.70;;;;;;4999852;28;20030;-81
2022/05/02 10:43:41;;;;;;;10.30;8.43;;;21.10;82.10;;;;;;4999128;28;20628;-80
2022/05/02 10:46:12;;;;;;;9.75;7.85;;;20.80;83.30;;;;;;5003535;28;20038;-81
2022/05/02 10:48:44;;;;;;;11.32;8.13;;;20.90;83.00;;;;;;5008909;28;20026;-81
2022/05/02 10:51:19;;;;;;;11.52;7.40;;;21.10;83.50;;;;;;5003523;28;20042;-81
2022/05/02 10:54:02;;;;;;;10.95;7.05;;;20.70;83.50;;;;;;5002281;28;20035;-81
2022/05/02 10:56:37;;;;;;;9.50;7.55;;;20.80;84.70;;;;;;4993046;28;20050;-81
2022/05/02 10:59:05;;;;;;;8.32;7.38;;;20.70;83.20;;;;;;5001863;28;20050;-81
2022/05/02 11:02:16;;;;;;;8.65;7.75;;;20.80;84.80;;;;;;5004357;28;20041;-79
2022/05/02 11:04:47;;;;;;;9.48;8.30;;;20.90;82.20;;;;;;4983049;28;20043;-82
2022/05/02 11:07:16;;;;;;;10.10;8.13;;;21.20;81.30;;;;;;4977914;28;20912;-80
2022/05/02 11:09:55;;;;;;;9.32;8.05;;;21.30;82.20;;;;;;4978428;28;20039;-80
2022/05/02 11:12:35;;;;;;;9.05;7.30;;;21.40;80.90;;;;;;4984878;28;20062;-80
2022/05/02 11:15:16;;;;;;;10.48;7.78;;;21.70;81.40;;;;;;4978665;28;20094;-80
2022/05/02 11:17:52;;;;;;;8.32;6.63;;;22.10;77.80;;;;;;4978731;28;20078;-80
2022/05/02 11:20:45;;;;;;;9.88;7.00;;;22.30;79.70;;;;;;4977032;28;20031;-80
2022/05/02 11:23:24;;;;;;;7.13;6.40;;;22.40;77.00;;;;;;4977395;28;20043;-79
2022/05/02 11:25:58;;;;;;;6.82;6.13;;;22.20;77.30;;;;;;4979540;28;20055;-81
2022/05/02 11:29:09;;;;;;;7.80;6.68;;;22.30;79.20;;;;;;4977856;28;20109;-81
2022/05/02 11:31:40;;;;;;;6.82;6.13;;;22.20;77.20;;;;;;4979587;28;20126;-83
2022/05/02 11:34:27;;;;;;;7.40;6.57;;;21.90;78.70;;;;;;4980318;28;20123;-83
2022/05/02 11:36:57;;;;;;;7.18;6.40;;;21.50;78.70;;;;;;4981497;28;20827;-83
2022/05/02 11:39:55;;;;;;;7.07;6.15;;;21.60;79.00;;;;;;4977990;28;20043;-83
2022/05/02 11:42:22;;;;;;;8.30;6.00;;;21.80;77.80;;;;;;4979295;28;20035;-83
2022/05/02 11:45:10;;;;;;;7.82;5.90;;;22.00;82.20;;;;;;4981381;28;20053;-83
2022/05/02 11:47:47;;;;;;;6.80;5.60;;;22.00;76.00;;;;;;5001163;28;20148;-83
2022/05/02 11:50:14;;;;;;;8.23;6.47;;;22.30;76.90;;;;;;4990020;28;20031;-83
2022/05/02 11:52:50;;;;;;;6.45;5.80;;;22.70;78.40;;;;;;4982422;28;20035;-83
2022/05/02 11:55:19;;;;;;;7.05;6.35;;;22.60;75.30;;;;;;4982217;28;20028;-82
2022/05/02 11:57:53;;;;;;;6.38;5.60;;;22.50;77.90;;;;;;4995064;28;20027;-84
2022/05/02 12:00:19;;;;;;;6.88;5.90;;;23.00;74.90;;;;;;5002077;28;20058;-83
2022/05/02 12:02:51;;;;;;;5.78;5.28;;;22.60;71.90;;;;;;5002233;28;20039;-83
2022/05/02 12:05:27;;;;;;;6.18;5.13;;;22.30;73.00;;;;;;4986826;28;20959;-83
2022/05/02 12:08:10;;;;;;;8.88;5.07;;;22.30;75.80;;;;;;4989225;28;20042;-81
2022/05/02 12:10:41;;;;;;;5.32;4.82;;;22.40;76.80;;;;;;4996832;28;20039;-84
2022/05/02 12:13:15;;;;;;;6.97;5.18;;;22.50;73.40;;;;;;4999338;28;20031;-82
2022/05/02 12:15:57;;;;;;;6.22;4.93;;;22.20;74.30;;;;;;4990684;28;20051;-82
2022/05/02 12:18:23;;;;;;;6.32;5.22;;;22.40;72.40;;;;;;4995566;28;20031;-81
2022/05/02 12:20:58;;;;;;;5.22;4.75;;;22.70;76.50;;;;;;4984069;28;20027;-83
2022/05/02 12:23:33;;;;;;;6.22;5.25;;;22.60;75.80;;;;;;4981993;28;20074;-82
2022/05/02 12:25:59;;;;;;;7.75;5.57;;;23.00;72.30;;;;;;4983322;28;20039;-81
2022/05/02 12:28:41;;;;;;;6.38;5.57;;;23.50;75.60;;;;;;4983898;28;20027;-81
2022/05/02 12:31:08;;;;;;;5.07;4.68;;;23.40;70.80;;;;;;4987851;28;20122;-82
2022/05/02 12:33:40;;;;;;;5.97;5.30;;;23.20;77.00;;;;;;4992387;28;20081;-81
2022/05/02 12:36:20;;;;;;;7.13;5.60;;;23.30;70.00;;;;;;4998557;28;20039;-81
2022/05/02 12:38:54;;;;;;;5.78;5.00;;;23.30;72.20;;;;;;4997933;28;20030;-79
2022/05/02 12:41:25;;;;;;;6.80;5.40;;;23.20;72.10;;;;;;4999547;28;20031;-79
2022/05/02 12:43:54;;;;;;;5.65;5.15;;;23.30;70.30;;;;;;4994789;28;20941;-79
2022/05/02 12:46:32;;;;;;;6.32;5.63;;;23.20;72.40;;;;;;4997479;28;20055;-79
2022/05/02 12:49:03;;;;;;;5.95;5.07;;;23.00;72.20;;;;;;4977450;28;20440;-79
2022/05/02 12:51:30;;;;;;;7.10;5.55;;;23.20;75.30;;;;;;4977605;28;20039;-80
2022/05/02 12:54:26;;;;;;;7.22;6.53;;;23.80;71.30;;;;;;4990388;28;20515;-81
2022/05/02 13:03:12;;;;;;;6.00;5.50;;;25.30;67.20;;;;;;4990713;28;20031;-81
2022/05/02 13:05:53;;;;;;;7.20;6.50;;;25.70;65.10;;;;;;4978745;28;20121;-80
2022/05/02 13:08:41;;;;;;;7.55;5.53;;;24.80;64.70;;;;;;4978962;28;20429;-83
2022/05/02 13:11:12;;;;;;;7.95;5.47;;;24.70;69.60;;;;;;4977421;28;20031;-80
2022/05/02 13:13:39;;;;;;;6.68;6.07;;;24.80;64.90;;;;;;4990560;28;20046;-82
2022/05/02 13:16:26;;;;;;;6.65;6.03;;;24.10;67.20;;;;;;4996541;28;20166;-79
2022/05/02 13:18:52;;;;;;;6.60;5.28;;;23.70;67.80;;;;;;4995675;28;20513;-79
2022/05/02 13:21:19;;;;;;;6.95;6.25;;;23.60;71.70;;;;;;4997340;28;20486;-81
2022/05/02 13:23:50;;;;;;;7.60;6.40;;;23.30;70.50;;;;;;4987923;28;20035;-81
2022/05/02 13:26:37;;;;;;;6.93;6.10;;;23.30;70.70;;;;;;4978377;28;20050;-81
2022/05/02 13:29:13;;;;;;;6.90;6.03;;;23.20;68.90;;;;;;4991476;28;20034;-81
2022/05/02 13:31:48;;;;;;;6.57;5.97;;;23.00;72.40;;;;;;5003446;28;20038;-81
2022/05/02 13:34:35;;;;;;;6.03;5.32;;;22.90;72.80;;;;;;4989803;28;20067;-80
2022/05/02 13:37:13;;;;;;;5.65;5.15;;;22.90;73.00;;;;;;4984373;28;20038;-80
2022/05/02 13:40:09;;;;;;;6.55;5.70;;;22.50;70.40;;;;;;4984967;28;20035;-81
2022/05/02 13:42:36;;;;;;;5.43;4.93;;;22.30;71.90;;;;;;4987309;28;20039;-80
2022/05/02 13:45:35;;;;;;;6.47;5.70;;;22.40;71.30;;;;;;5011694;28;20035;-79
2022/05/02 13:48:26;;;;;;;6.10;5.50;;;22.60;69.10;;;;;;4992328;28;20102;-81
2022/05/02 13:51:29;;;;;;;5.65;5.10;;;23.30;67.40;;;;;;5000296;28;20134;-82
2022/05/02 13:54:16;;;;;;;6.97;6.20;;;23.90;74.30;;;;;;5001077;28;20039;-84
2022/05/02 13:57:04;;;;;;;6.38;5.78;;;24.00;69.00;;;;;;5006246;28;20058;-81
2022/05/02 13:59:53;;;;;;;7.57;5.40;;;24.20;68.60;;;;;;4994236;28;20027;-81
2022/05/02 14:03:07;;;;;;;7.07;5.70;;;23.90;66.30;;;;;;5002803;28;20122;-81
2022/05/02 14:05:59;;;;;;;8.82;5.78;;;24.00;68.80;;;;;;4985055;28;20055;-81
2022/05/02 14:08:42;;;;;;;7.75;6.15;;;23.90;68.30;;;;;;5003693;28;20039;-81
2022/05/02 14:11:17;;;;;;;7.15;6.45;;;23.40;68.00;;;;;;5005213;28;20045;-81
2022/05/02 14:13:45;;;;;;;8.20;7.30;;;23.40;69.70;;;;;;5001577;28;20031;-83
2022/05/02 14:16:11;;;;;;;9.35;7.20;;;23.20;70.70;;;;;;4993592;28;20046;-82
2022/05/02 14:18:54;;;;;;;8.18;6.70;;;22.90;70.50;;;;;;5006778;28;20039;-82
2022/05/02 14:21:22;;;;;;;7.90;6.55;;;23.00;72.40;;;;;;5005166;28;20038;-83
2022/05/02 14:23:58;;;;;;;8.43;6.53;;;22.90;71.70;;;;;;5002869;28;20050;-83
2022/05/02 14:26:28;;;;;;;9.88;6.38;;;23.00;72.40;;;;;;4987580;28;20031;-83
2022/05/02 14:28:56;;;;;;;7.32;6.57;;;23.10;72.50;;;;;;4984240;28;20043;-83
2022/05/02 14:31:37;;;;;;;8.80;7.90;;;23.60;69.20;;;;;;4982394;28;20067;-82
2022/05/02 14:34:10;;;;;;;7.88;6.13;;;23.30;68.50;;;;;;4984354;28;20091;-82
2022/05/02 14:36:36;;;;;;;8.77;6.25;;;24.40;70.20;;;;;;4981348;28;20520;-81
2022/05/02 14:39:04;;;;;;;6.82;6.22;;;26.00;62.90;;;;;;4978660;28;20066;-83
2022/05/02 14:41:34;;;;;;;6.95;6.00;;;27.00;61.50;;;;;;4978826;28;20513;-83
2022/05/02 14:44:01;;;;;;;6.55;5.90;;;28.20;60.30;;;;;;4979786;28;20049;-82
2022/05/02 14:46:28;;;;;;;7.25;6.55;;;29.90;55.70;;;;;;4994720;28;20037;-82
2022/05/02 14:48:54;;;;;;;6.88;6.25;;;29.50;57.60;;;;;;4998862;28;20050;-81
2022/05/02 14:51:25;;;;;;;7.53;6.00;;;28.20;61.50;;;;;;4985781;28;20031;-81
2022/05/02 14:53:55;;;;;;;7.07;6.38;;;28.00;59.80;;;;;;4995954;28;20035;-81
2022/05/02 14:56:28;;;;;;;7.47;6.32;;;27.70;58.10;;;;;;4986878;28;20031;-81
2022/05/02 14:58:57;;;;;;;6.78;6.18;;;28.60;59.30;;;;;;4997050;28;20086;-81
2022/05/02 15:01:26;;;;;;;8.38;6.65;;;28.50;57.00;;;;;;5002182;28;20527;-81
2022/05/02 15:03:58;;;;;;;8.00;6.57;;;29.20;55.50;;;;;;5002476;28;20039;-81
2022/05/02 15:06:27;;;;;;;7.05;5.95;;;30.10;56.60;;;;;;5001408;28;20062;-80
2022/05/02 15:09:17;;;;;;;5.90;5.40;;;30.30;52.60;;;;;;4997027;28;20836;-80
2022/05/02 15:12:09;;;;;;;7.07;6.47;;;28.90;56.80;;;;;;4982225;28;20114;-81
2022/05/02 15:14:55;;;;;;;7.05;6.38;;;27.10;57.60;;;;;;4980345;28;20482;-81
2022/05/02 15:17:27;;;;;;;7.45;6.20;;;25.50;61.30;;;;;;4982472;28;20110;-81
2022/05/02 15:20:17;;;;;;;6.78;6.15;;;24.60;61.00;;;;;;4985345;28;20039;-79
2022/05/02 15:22:51;;;;;;;7.85;6.32;;;23.80;68.80;;;;;;4997084;28;20035;-79
2022/05/02 15:25:21;;;;;;;6.68;6.07;;;23.10;73.80;;;;;;4978232;28;20069;-81
2022/05/02 15:36:40;;;;;;;6.03;5.43;;;22.00;70.20;;;;;;5000283;28;20765;-80
2022/05/02 15:39:29;;;;;;;6.20;5.60;;;21.70;73.60;;;;;;4985931;28;20039;-80
2022/05/02 15:41:56;;;;;;;6.60;5.60;;;21.50;73.40;;;;;;4984167;28;20039;-80
2022/05/02 15:44:28;;;;;;;6.68;6.00;;;21.40;74.60;;;;;;4987659;28;20051;-81
2022/05/02 15:47:01;;;;;;;6.95;6.32;;;21.30;74.70;;;;;;4985999;28;20832;-79
2022/05/02 15:49:36;;;;;;;6.70;6.00;;;21.10;75.70;;;;;;4986431;28;20874;-81
2022/05/02 15:52:14;;;;;;;8.27;6.13;;;21.00;76.60;;;;;;4982959;28;20489;-80
2022/05/02 15:54:59;;;;;;;8.65;7.05;;;20.80;79.20;;;;;;4983334;28;20041;-81
2022/05/02 15:57:37;;;;;;;7.20;6.50;;;20.90;79.50;;;;;;4988597;28;20043;-80
2022/05/02 16:00:17;;;;;;;7.07;6.38;;;20.70;78.20;;;;;;4982960;28;20487;-80
2022/05/02 16:03:03;;;;;;;9.73;7.22;;;20.50;79.50;;;;;;4986887;28;20035;-80
2022/05/02 16:05:33;;;;;;;8.60;6.90;;;20.50;77.20;;;;;;4998478;28;20035;-79
2022/05/02 16:10:54;;;;;;;7.75;6.70;;;20.20;78.10;;;;;;5007366;28;20117;-79
2022/05/02 16:13:20;;;;;;;8.57;7.50;;;20.00;78.80;;;;;;5007354;28;20460;-79
2022/05/02 16:15:48;;;;;;;8.13;6.82;;;20.00;80.80;;;;;;4989113;28;20062;-79
2022/05/02 16:18:22;;;;;;;7.57;6.60;;;19.90;78.20;;;;;;4997381;28;20046;-79
2022/05/02 16:20:48;;;;;;;10.48;6.75;;;19.80;80.30;;;;;;4982699;28;20070;-80
2022/05/02 16:23:20;;;;;;;10.23;7.65;;;19.90;85.70;;;;;;4991614;28;20091;-79
2022/05/02 16:25:55;;;;;;;8.05;6.65;;;19.80;79.70;;;;;;4994797;28;20079;-80
2022/05/02 16:28:22;;;;;;;10.48;7.03;;;19.90;78.90;;;;;;4992809;28;20035;-80
2022/05/02 16:30:52;;;;;;;8.40;6.45;;;19.90;78.90;;;;;;5006064;28;20097;-80
2022/05/02 16:33:23;;;;;;;7.60;6.40;;;20.00;81.80;;;;;;5006777;28;20034;-79
2022/05/02 16:35:49;;;;;;;10.35;6.30;;;19.80;81.50;;;;;;4990628;28;20561;-79
2022/05/02 16:38:26;;;;;;;9.70;6.93;;;19.90;81.90;;;;;;4989898;28;20031;-80
2022/05/02 16:40:55;;;;;;;9.63;6.97;;;19.80;81.10;;;;;;4982771;28;20031;-80
2022/05/02 16:43:25;;;;;;;7.15;6.45;;;19.70;82.80;;;;;;4986898;28;20094;-79
2022/05/02 16:45:52;;;;;;;8.43;6.80;;;19.70;82.40;;;;;;4980949;28;20046;-81
2022/05/02 16:48:20;;;;;;;8.25;6.45;;;19.60;83.20;;;;;;4981119;28;20023;-79
2022/05/02 16:50:46;;;;;;;8.13;6.43;;;19.60;82.40;;;;;;5003280;28;20027;-79
2022/05/02 16:53:13;;;;;;;7.50;5.90;;;19.60;84.60;;;;;;4997947;28;20134;-80
2022/05/02 16:55:38;;;;;;;7.75;6.95;;;19.70;84.30;;;;;;5000342;28;20046;-80
2022/05/02 16:58:12;;;;;;;9.27;6.55;;;19.80;80.70;;;;;;5018970;23;20054;-88
2022/05/02 17:00:56;;;;;;;7.55;6.78;;;19.80;85.50;;;;;;5015372;28;20206;-88
2022/05/02 17:03:30;;;;;;;7.70;6.95;;;19.80;83.30;;;;;;5011970;28;20093;-88
2022/05/02 17:06:02;;;;;;;7.40;6.47;;;19.90;84.70;;;;;;5013714;28;20063;-88
2022/05/02 17:08:28;;;;;;;9.25;6.55;;;19.90;81.50;;;;;;5013407;28;20058;-88
2022/05/02 17:10:55;;;;;;;6.05;5.55;;;19.90;80.30;;;;;;5013838;28;20089;-87
2022/05/02 17:13:23;;;;;;;7.97;6.38;;;20.00;84.60;;;;;;4995920;28;20039;-88
2022/05/02 17:15:59;;;;;;;6.78;6.07;;;19.90;82.80;;;;;;5015873;28;20061;-88
2022/05/02 17:18:29;;;;;;;8.02;5.88;;;19.90;83.70;;;;;;5012976;28;20081;-87
2022/05/02 17:20:57;;;;;;;7.00;6.05;;;19.70;82.10;;;;;;5014936;28;20026;-87
2022/05/02 17:23:35;;;;;;;8.75;6.18;;;19.80;82.70;;;;;;5011930;28;20495;-86
2022/05/02 17:26:05;;;;;;;8.65;6.28;;;19.70;80.90;;;;;;4995179;28;20035;-84
2022/05/02 17:28:32;;;;;;;8.43;6.47;;;19.70;82.30;;;;;;4994001;28;20050;-85
2022/05/02 17:31:02;;;;;;;7.00;6.22;;;19.60;82.10;;;;;;4993689;28;20038;-87
2022/05/02 17:33:46;;;;;;;7.82;5.93;;;19.60;82.60;;;;;;4994537;28;20035;-87
2022/05/02 17:36:13;;;;;;;7.10;5.93;;;19.50;83.00;;;;;;5004493;28;20037;-86
2022/05/02 17:38:41;;;;;;;8.55;6.68;;;19.30;85.80;;;;;;4994449;28;20139;-85
2022/05/02 17:41:12;;;;;;;6.63;5.93;;;19.10;83.90;;;;;;4993890;28;20037;-86
2022/05/02 17:43:47;;;;;;;6.50;5.90;;;18.90;89.70;;;;;;4994909;28;20042;-85
2022/05/02 17:46:12;;;;;;;8.98;6.70;;;18.80;87.20;;;;;;5007612;28;20034;-85
2022/05/02 17:48:40;;;;;;;10.10;6.35;;;18.60;89.90;;;;;;5013217;28;20034;-87
2022/05/02 17:51:11;;;;;;;7.43;6.32;;;18.30;90.60;;;;;;5013324;28;20057;-85
2022/05/02 17:53:38;;;;;;;9.98;6.25;;;18.20;91.30;;;;;;4995818;28;20125;-85
2022/05/02 17:56:14;;;;;;;7.57;6.22;;;18.00;91.50;;;;;;4993664;28;20114;-87
2022/05/02 17:58:40;;;;;;;8.35;6.40;;;17.80;91.80;;;;;;4995114;28;20035;-85
2022/05/02 18:01:08;;;;;;;7.30;6.50;;;17.50;92.30;;;;;;4994683;28;20117;-84
2022/05/02 18:03:40;;;;;;;7.10;6.40;;;17.30;92.70;;;;;;5000880;28;20803;-83
2022/05/02 18:06:06;;;;;;;7.03;6.32;;;17.10;93.10;;;;;;5016195;28;20492;-85
2022/05/02 18:08:34;;;;;;;7.00;6.28;;;16.80;93.60;;;;;;5013245;28;20038;-85